createdAt,value
2022-08-05T00:00:18.451Z,2.33
2022-08-05T00:02:51.302Z,2.40
2022-08-05T00:05:27.171Z,2.55
2022-08-05T00:08:32.486Z,2.40
2022-08-05T00:11:00.761Z,2.55
2022-08-05T00:13:38.101Z,2.65
2022-08-05T00:16:12.472Z,2.33
2022-08-05T00:18:42.387Z,2.10
2022-08-05T00:21:14.406Z,2.40
2022-08-05T00:23:46.489Z,2.30
2022-08-05T00:26:23.151Z,2.33
2022-08-05T00:28:51.721Z,2.40
2022-08-05T00:31:53.273Z,2.65
2022-08-05T00:34:56.661Z,2.30
2022-08-05T00:37:12.833Z,2.70
2022-08-05T00:39:57.143Z,2.30
2022-08-05T00:42:37.015Z,2.30
2022-08-05T00:45:08.756Z,2.60
2022-08-05T00:47:57.076Z,2.35
2022-08-05T00:50:25.972Z,2.45
2022-08-05T00:52:55.292Z,2.60
2022-08-05T00:55:34.077Z,2.70
2022-08-05T00:58:12.134Z,2.22
2022-08-05T01:00:42.435Z,2.30
2022-08-05T01:03:12.620Z,2.65
2022-08-05T01:05:51.659Z,2.30
2022-08-05T01:08:41.080Z,2.53
2022-08-05T01:11:14.912Z,2.35
2022-08-05T01:14:01.045Z,2.55
2022-08-05T01:16:38.711Z,2.38
2022-08-05T01:19:17.120Z,3.00
2022-08-05T01:22:18.670Z,2.58
2022-08-05T01:25:40.457Z,2.70
2022-08-05T01:28:25.185Z,2.58
2022-08-05T01:30:57.382Z,2.30
2022-08-05T01:33:35.357Z,2.70
2022-08-05T01:36:13.140Z,2.60
2022-08-05T01:38:48.611Z,2.45
2022-08-05T01:41:21.847Z,2.78
2022-08-05T01:43:53.092Z,2.47
2022-08-05T01:46:42.625Z,2.65
2022-08-05T01:49:24.203Z,2.55
2022-08-05T01:51:58.361Z,2.67
2022-08-05T01:54:31.478Z,2.50
2022-08-05T01:58:09.490Z,2.55
2022-08-05T01:59:53.687Z,2.70
2022-08-05T02:02:28.436Z,2.97
2022-08-05T02:05:01.816Z,2.60
2022-08-05T02:07:32.002Z,3.03
2022-08-05T02:10:02.161Z,3.00
2022-08-05T02:12:36.621Z,2.42
2022-08-05T02:15:12.180Z,2.90
2022-08-05T02:18:27.929Z,2.58
2022-08-05T02:20:41.236Z,2.55
2022-08-05T02:23:12.897Z,2.70
2022-08-05T02:25:49.581Z,2.50
2022-08-05T02:28:29.203Z,3.00
2022-08-05T02:31:07.658Z,2.60
2022-08-05T02:33:48.338Z,2.70
2022-08-05T02:36:20.249Z,2.80
2022-08-05T02:38:53.089Z,2.63
2022-08-05T02:41:28.703Z,2.92
2022-08-05T02:44:11.983Z,3.05
2022-08-05T02:46:58.554Z,3.10
2022-08-05T02:49:36.448Z,2.80
2022-08-05T02:52:11.535Z,2.90
2022-08-05T02:54:51.122Z,2.60
2022-08-05T02:58:10.886Z,3.00
2022-08-05T03:00:12.613Z,2.95
2022-08-05T03:02:44.901Z,2.67
2022-08-05T03:05:13.399Z,3.25
2022-08-05T03:08:01.155Z,2.88
2022-08-05T03:10:31.178Z,2.83
2022-08-05T03:15:27.347Z,3.00
2022-08-05T03:17:58.047Z,3.60
2022-08-05T03:20:27.580Z,3.40
2022-08-05T03:22:57.302Z,3.67
2022-08-05T03:25:33.308Z,3.60
2022-08-05T03:28:18.431Z,3.80
2022-08-05T03:30:49.158Z,3.33
2022-08-05T03:33:19.354Z,3.53
2022-08-05T03:35:48.233Z,3.13
2022-08-05T03:38:32.798Z,2.83
2022-08-05T03:41:08.475Z,3.17
2022-08-05T03:44:07.993Z,3.10
2022-08-05T03:46:30.024Z,3.10
2022-08-05T03:49:02.243Z,2.92
2022-08-05T03:52:37.710Z,3.28
2022-08-05T03:55:50.310Z,2.90
2022-08-05T03:57:42.349Z,3.22
2022-08-05T04:00:15.616Z,3.20
2022-08-05T04:02:57.641Z,2.70
2022-08-05T04:05:33.553Z,4.13
2022-08-05T04:08:05.799Z,4.40
2022-08-05T04:10:45.121Z,4.28
2022-08-05T04:13:13.709Z,4.30
2022-08-05T04:16:02.812Z,3.80
2022-08-05T04:18:30.140Z,3.83
2022-08-05T04:20:59.963Z,4.05
2022-08-05T04:23:58.438Z,4.28
2022-08-05T04:26:18.315Z,4.38
2022-08-05T04:28:50.722Z,3.53
2022-08-05T04:31:20.351Z,4.20
2022-08-05T04:34:17.215Z,3.40
2022-08-05T04:36:49.642Z,4.70
2022-08-05T04:39:18.417Z,4.07
2022-08-05T04:41:48.196Z,4.22
2022-08-05T04:44:29.064Z,3.92
2022-08-05T04:46:58.531Z,3.70
2022-08-05T04:49:38.597Z,3.50
2022-08-05T04:52:16.192Z,3.50
2022-08-05T04:54:44.182Z,3.70
2022-08-05T04:57:12.257Z,3.60
2022-08-05T04:59:40.752Z,3.20
2022-08-05T05:02:37.656Z,3.13
2022-08-05T05:05:02.320Z,3.30
2022-08-05T05:07:35.694Z,2.97
2022-08-05T05:10:05.423Z,3.10
2022-08-05T05:12:34.442Z,3.10
2022-08-05T05:15:10.769Z,3.10
2022-08-05T05:17:56.657Z,3.25
2022-08-05T05:20:28.507Z,3.25
2022-08-05T05:22:58.638Z,3.05
2022-08-05T05:25:40.457Z,3.25
2022-08-05T05:28:09.395Z,2.90
2022-08-05T05:30:37.746Z,2.90
2022-08-05T05:33:16.562Z,2.80
2022-08-05T05:35:47.331Z,2.90
2022-08-05T05:38:27.084Z,3.00
2022-08-05T05:40:57.063Z,2.75
2022-08-05T05:43:56.477Z,2.83
2022-08-05T05:46:17.372Z,3.03
2022-08-05T05:48:48.914Z,2.63
2022-08-05T05:51:21.456Z,2.70
2022-08-05T05:53:57.583Z,3.10
2022-08-05T05:56:33.279Z,2.75
2022-08-05T05:59:05.142Z,2.88
2022-08-05T06:01:37.959Z,2.90
2022-08-05T06:04:11.373Z,2.90
2022-08-05T06:06:42.394Z,2.60
2022-08-05T06:09:18.072Z,2.72
2022-08-05T06:12:02.557Z,3.50
2022-08-05T06:14:31.139Z,2.92
2022-08-05T06:17:02.108Z,3.00
2022-08-05T06:19:56.908Z,2.83
2022-08-05T06:22:29.331Z,2.88
2022-08-05T06:24:59.044Z,2.85
2022-08-05T06:28:11.225Z,3.45
2022-08-05T06:30:20.060Z,3.10
2022-08-05T06:32:50.743Z,2.90
2022-08-05T06:36:04.022Z,3.47
2022-08-05T06:38:11.142Z,4.10
2022-08-05T06:40:44.331Z,3.58
2022-08-05T06:43:51.731Z,3.72
2022-08-05T06:46:07.351Z,2.97
2022-08-05T06:48:55.521Z,3.08
2022-08-05T06:51:29.892Z,3.33
2022-08-05T06:53:59.766Z,2.78
2022-08-05T06:56:29.517Z,3.47
2022-08-05T06:58:57.803Z,2.92
2022-08-05T07:01:27.611Z,3.20
2022-08-05T07:04:01.344Z,3.50
2022-08-05T07:06:30.403Z,3.10
2022-08-05T07:09:00.235Z,3.30
2022-08-05T07:11:36.961Z,2.83
2022-08-05T07:14:30.011Z,2.70
2022-08-05T07:17:58.677Z,2.90
2022-08-05T07:20:34.066Z,2.60
2022-08-05T07:22:38.661Z,2.80
2022-08-05T07:25:24.050Z,3.20
2022-08-05T07:28:03.789Z,2.65
2022-08-05T07:30:34.711Z,2.40
2022-08-05T07:33:10.642Z,2.28
2022-08-05T07:36:03.086Z,2.65
2022-08-05T07:38:35.675Z,2.60
2022-08-05T07:42:07.173Z,2.70
2022-08-05T07:44:06.426Z,2.25
2022-08-05T07:46:48.294Z,2.65
2022-08-05T07:49:18.051Z,3.10
2022-08-05T07:51:52.913Z,2.80
2022-08-05T07:54:30.689Z,2.55
2022-08-05T07:57:22.566Z,2.60
2022-08-05T07:59:51.438Z,2.40
2022-08-05T08:02:19.621Z,2.30
2022-08-05T08:04:55.480Z,2.40
2022-08-05T08:07:24.286Z,2.33
2022-08-05T08:09:56.536Z,2.53
2022-08-05T08:12:35.585Z,2.25
2022-08-05T08:15:15.141Z,2.67
2022-08-05T08:17:49.637Z,2.58
2022-08-05T08:21:00.144Z,2.50
2022-08-05T08:24:00.199Z,2.22
2022-08-05T08:26:00.373Z,2.50
2022-08-05T08:28:36.530Z,2.88
2022-08-05T08:31:07.641Z,2.10
2022-08-05T08:33:38.309Z,2.58
2022-08-05T08:36:37.411Z,2.38
2022-08-05T08:38:56.794Z,2.33
2022-08-05T08:41:52.638Z,2.35
2022-08-05T08:45:17.009Z,3.08
2022-08-05T08:47:46.811Z,2.83
2022-08-05T08:50:06.178Z,2.60
2022-08-05T08:52:47.393Z,2.40
2022-08-05T08:56:02.035Z,2.50
2022-08-05T08:58:09.897Z,2.00
2022-08-05T09:00:42.307Z,2.13
2022-08-05T09:03:16.240Z,2.00
2022-08-05T09:06:08.826Z,1.80
2022-08-05T09:08:40.072Z,1.73
2022-08-05T09:11:12.204Z,1.83
2022-08-05T09:14:09.517Z,1.65
2022-08-05T09:16:31.177Z,1.95
2022-08-05T09:19:00.648Z,1.55
2022-08-05T09:22:28.702Z,1.60
2022-08-05T09:24:17.727Z,1.30
2022-08-05T09:26:51.701Z,1.52
2022-08-05T09:29:20.459Z,1.40
2022-08-05T09:32:41.248Z,1.27
2022-08-05T09:34:58.485Z,1.40
2022-08-05T09:38:16.960Z,1.50
2022-08-05T09:40:32.274Z,1.38
2022-08-05T09:43:01.449Z,1.88
2022-08-05T09:46:07.312Z,1.40
2022-08-05T09:48:30.052Z,1.48
2022-08-05T09:51:01.750Z,1.67
2022-08-05T09:53:54.034Z,1.30
2022-08-05T09:56:26.743Z,1.50
2022-08-05T09:58:59.254Z,1.50
2022-08-05T10:01:31.823Z,1.50
2022-08-05T10:04:04.138Z,1.30
2022-08-05T10:06:41.451Z,1.30
2022-08-05T10:09:27.824Z,1.40
2022-08-05T10:12:30.604Z,1.40
2022-08-05T10:15:13.929Z,1.40
2022-08-05T10:17:56.777Z,1.50
2022-08-05T10:20:27.057Z,1.48
2022-08-05T10:22:58.466Z,1.33
2022-08-05T10:25:26.756Z,1.42
2022-08-05T10:28:13.056Z,1.80
2022-08-05T10:32:51.792Z,1.40
2022-08-05T10:33:35.115Z,1.52
2022-08-05T10:36:05.448Z,1.50
2022-08-05T10:38:37.376Z,1.20
2022-08-05T10:41:13.883Z,1.25
2022-08-05T10:43:51.854Z,1.33
2022-08-05T10:46:24.071Z,1.30
2022-08-05T10:49:02.686Z,1.30
2022-08-05T10:51:57.714Z,1.13
2022-08-05T10:54:56.605Z,1.30
2022-08-05T10:57:32.348Z,1.30
2022-08-05T11:00:16.095Z,1.20
2022-08-05T11:03:23.076Z,1.10
2022-08-05T11:06:15.631Z,1.40
2022-08-05T11:09:31.914Z,1.40
2022-08-05T11:12:54.498Z,1.20
2022-08-05T11:15:59.523Z,1.70
2022-08-05T11:18:27.254Z,1.50
2022-08-05T11:20:59.118Z,1.50
2022-08-05T11:24:02.502Z,1.35
2022-08-05T11:26:28.281Z,1.17
2022-08-05T11:29:06.744Z,1.30
2022-08-05T11:31:56.446Z,1.20
2022-08-05T11:34:38.660Z,1.50
2022-08-05T11:38:28.186Z,1.33
2022-08-05T11:40:03.213Z,1.42
2022-08-05T11:42:37.963Z,1.27
2022-08-05T11:45:14.283Z,1.40
2022-08-05T11:47:54.826Z,1.42
2022-08-05T11:50:23.299Z,1.60
2022-08-05T11:52:57.683Z,1.40
2022-08-05T11:55:32.332Z,1.40
2022-08-05T11:58:09.941Z,1.35
2022-08-05T12:00:44.362Z,1.35
2022-08-05T12:03:28.842Z,1.02
2022-08-05T12:06:01.509Z,1.60
2022-08-05T12:08:31.725Z,1.40
2022-08-05T12:11:05.975Z,1.45
2022-08-05T12:13:48.933Z,1.23
2022-08-05T12:16:25.420Z,1.50
2022-08-05T12:18:54.252Z,1.23
2022-08-05T12:21:24.527Z,1.25
2022-08-05T12:23:58.459Z,1.35
2022-08-05T12:26:32.381Z,1.42
2022-08-05T12:29:01.460Z,1.30
2022-08-05T12:31:43.749Z,1.50
2022-08-05T12:34:20.720Z,1.58
2022-08-05T12:36:54.207Z,1.35
2022-08-05T12:39:23.484Z,1.20
2022-08-05T12:41:59.389Z,1.30
2022-08-05T12:44:33.469Z,1.30
2022-08-05T12:47:04.355Z,1.30
2022-08-05T12:50:03.484Z,1.33
2022-08-05T12:52:39.742Z,1.27
2022-08-05T12:55:22.676Z,1.30
2022-08-05T12:58:48.312Z,1.35
2022-08-05T13:02:02.435Z,1.30
2022-08-05T13:03:39.102Z,1.27
2022-08-05T13:06:16.110Z,1.40
2022-08-05T13:08:50.955Z,1.52
2022-08-05T13:11:57.933Z,1.60
2022-08-05T13:14:25.071Z,1.50
2022-08-05T13:17:10.240Z,1.75
2022-08-05T13:19:51.982Z,1.20
2022-08-05T13:22:28.351Z,1.40
2022-08-05T13:25:00.407Z,1.38
2022-08-05T13:27:37.974Z,1.25
2022-08-05T13:30:32.968Z,1.58
2022-08-05T13:32:57.268Z,1.40
2022-08-05T13:35:47.342Z,1.45
